Time;durP1;ratioP1;P1;durP2;ratioP2;P2;SDS_P1;SDS_P2;PMS_P1;PMS_P2;Temp;Humidity;BMP_temperature;BMP_pressure;BME280_temperature;BME280_humidity;BME280_pressure;Samples;Min_cycle;Max_cycle;Signal;HPM_P1;HPM_P2
2023/09/21 00:02:58;;;;;;;2.20;1.00;;;16.60;99.80;;;15.37;93.70;99968.75;9896790;29;96503;-90
2023/09/21 00:08:03;;;;;;;2.45;0.93;;;16.60;99.90;;;15.32;93.43;99963.16;9900879;29;96714;-90
2023/09/21 00:13:07;;;;;;;2.10;0.98;;;16.50;99.90;;;15.27;94.10;99964.59;9885148;29;97364;-91
2023/09/21 00:18:13;;;;;;;1.73;0.93;;;16.40;99.90;;;15.24;94.28;99965.03;9884873;29;98242;-92
2023/09/21 00:23:18;;;;;;;1.33;0.60;;;16.40;99.90;;;15.20;94.48;99954.91;9886178;29;96597;-91
2023/09/21 00:28:22;;;;;;;1.10;0.68;;;16.40;99.90;;;15.18;95.22;99965.84;9885667;29;97388;-92
2023/09/21 00:33:30;;;;;;;1.70;0.93;;;16.30;99.90;;;15.11;95.08;99943.56;9899734;29;96539;-91
2023/09/21 00:38:34;;;;;;;1.48;0.68;;;16.30;99.90;;;15.15;95.26;99952.03;9903251;29;96739;-91
2023/09/21 00:43:38;;;;;;;2.05;0.90;;;16.30;99.90;;;15.12;95.35;99944.41;9883402;29;96674;-91
2023/09/21 00:48:42;;;;;;;1.52;0.82;;;16.30;99.90;;;15.14;95.34;99947.69;9884000;29;96710;-91
2023/09/21 00:53:48;;;;;;;1.15;0.75;;;16.30;99.90;;;15.10;95.19;99943.78;9899029;29;98879;-91
2023/09/21 00:58:53;;;;;;;1.33;0.75;;;16.30;99.90;;;15.09;95.80;99942.13;9882326;29;97669;-91
2023/09/21 01:04:06;;;;;;;2.17;1.10;;;16.30;99.90;;;15.06;95.94;99938.03;9877243;29;97182;-90
2023/09/21 01:09:13;;;;;;;1.02;0.70;;;16.30;99.90;;;15.04;95.78;99932.03;9883393;29;97052;-91
2023/09/21 01:14:17;;;;;;;3.60;0.93;;;16.20;99.90;;;15.01;95.91;99935.13;9892081;29;97890;-91
2023/09/21 01:19:22;;;;;;;1.90;1.00;;;16.20;99.90;;;14.97;96.29;99931.19;9897157;29;96766;-92
2023/09/21 01:24:27;;;;;;;1.05;0.77;;;16.20;99.90;;;14.90;96.21;99925.00;9882747;29;98722;-91
2023/09/21 01:29:32;;;;;;;1.77;0.80;;;16.10;99.90;;;14.88;96.43;99921.72;9876033;29;96759;-91
2023/09/21 01:34:36;;;;;;;1.20;0.77;;;16.10;99.90;;;14.86;96.51;99927.25;9882214;29;96640;-91
2023/09/21 01:39:40;;;;;;;2.20;0.80;;;16.00;99.90;;;14.77;97.02;99919.63;9880413;29;96589;-92
2023/09/21 01:44:46;;;;;;;2.55;1.00;;;16.00;99.90;;;14.74;96.83;99920.84;9883429;29;96611;-91
2023/09/21 01:49:50;;;;;;;3.53;0.90;;;15.90;99.90;;;14.69;96.99;99920.63;9908701;29;97003;-91
2023/09/21 01:54:53;;;;;;;1.20;0.77;;;15.90;99.90;;;14.63;97.62;99916.94;9881797;29;96719;-91
2023/09/21 01:59:57;;;;;;;1.70;0.88;;;15.80;99.90;;;14.58;97.64;99908.69;9896965;29;96559;-90
2023/09/21 02:05:03;;;;;;;1.67;0.82;;;15.70;99.90;;;14.54;97.88;99902.06;9882207;29;96806;-91
2023/09/21 02:10:10;;;;;;;2.75;1.15;;;15.70;99.90;;;14.53;98.15;99908.44;9897291;29;96843;-91
2023/09/21 02:15:14;;;;;;;1.25;0.73;;;15.70;99.90;;;14.52;98.38;99904.13;9895792;29;98741;-91
2023/09/21 02:20:20;;;;;;;1.42;0.70;;;15.70;99.90;;;14.48;98.20;99900.22;9910266;29;96530;-91
2023/09/21 02:25:25;;;;;;;1.52;0.98;;;15.70;99.90;;;14.44;98.49;99904.25;9895503;29;96693;-91
2023/09/21 02:30:33;;;;;;;2.05;1.00;;;15.60;99.90;;;14.41;98.58;99902.00;9896101;29;96770;-91
2023/09/21 02:35:41;;;;;;;0.90;0.63;;;15.60;99.90;;;14.36;98.84;99891.91;9912554;29;97461;-91
2023/09/21 02:40:45;;;;;;;3.35;1.20;;;15.60;99.90;;;14.31;99.25;99882.84;9883116;29;96578;-91
2023/09/21 02:45:50;;;;;;;2.55;1.40;;;15.50;99.90;;;14.32;99.52;99876.47;9896064;29;97298;-91
2023/09/21 02:50:58;;;;;;;2.35;0.75;;;15.50;99.90;;;14.30;99.44;99876.66;9883439;29;98975;-91
2023/09/21 02:56:03;;;;;;;1.70;0.90;;;15.50;99.90;;;14.24;99.69;99877.47;9897814;29;97403;-91
2023/09/21 03:01:10;;;;;;;1.73;0.80;;;15.50;99.90;;;14.22;99.94;99876.84;9886769;29;96988;-91
2023/09/21 03:06:17;;;;;;;1.40;0.90;;;15.40;99.90;;;14.20;99.98;99876.22;9885927;29;96622;-90
2023/09/21 03:11:23;;;;;;;1.83;0.70;;;15.40;99.90;;;14.17;100.00;99869.44;9888557;29;96665;-92
2023/09/21 03:16:28;;;;;;;3.15;1.10;;;15.40;99.90;;;14.18;100.00;99875.59;9893892;29;96819;-92
2023/09/21 03:21:34;;;;;;;2.60;0.90;;;15.40;99.90;;;14.16;100.00;99873.13;9910063;29;96569;-91
2023/09/21 03:26:38;;;;;;;1.92;1.10;;;15.40;99.90;;;14.14;100.00;99872.47;9856002;29;96649;-92
2023/09/21 03:31:43;;;;;;;1.95;1.00;;;15.30;99.90;;;14.14;100.00;99872.47;9907195;29;97278;-92
2023/09/21 03:36:46;;;;;;;4.43;1.38;;;15.40;99.90;;;14.17;100.00;99863.25;9897402;29;96606;-91
2023/09/21 03:41:52;;;;;;;1.80;1.15;;;15.40;99.90;;;14.18;100.00;99863.06;9888097;29;96523;-91
2023/09/21 03:46:56;;;;;;;3.42;1.20;;;15.40;99.90;;;14.25;100.00;99872.94;9884833;29;96985;-91
2023/09/21 03:52:00;;;;;;;1.50;0.88;;;15.50;99.90;;;14.30;100.00;99857.13;9885905;29;96827;-91
2023/09/21 03:57:04;;;;;;;2.38;1.10;;;15.50;99.90;;;14.28;100.00;99843.16;9915952;29;96677;-91
2023/09/21 04:02:08;;;;;;;2.13;0.90;;;15.50;99.90;;;14.27;100.00;99850.31;9911743;29;97605;-90
2023/09/21 04:07:12;;;;;;;2.10;1.10;;;15.50;99.90;;;14.28;100.00;99843.16;9913764;29;98205;-91
2023/09/21 04:12:16;;;;;;;3.13;1.23;;;15.50;99.90;;;14.25;100.00;99839.03;9885309;29;96605;-91
2023/09/21 04:17:20;;;;;;;2.53;1.08;;;15.50;99.90;;;14.22;100.00;99842.09;9912911;29;97526;-90
2023/09/21 04:22:25;;;;;;;2.85;1.20;;;15.40;99.90;;;14.25;100.00;99849.72;9898968;29;96732;-88
2023/09/21 04:27:29;;;;;;;2.42;1.55;;;15.40;99.90;;;14.29;100.00;99850.97;9883975;29;96728;-90
2023/09/21 04:32:35;;;;;;;1.63;1.13;;;15.50;99.90;;;14.39;100.00;99843.41;9932678;29;97803;-91
2023/09/21 04:37:39;;;;;;;2.97;1.30;;;15.60;99.90;;;14.51;100.00;99840.97;9898526;29;98165;-91
2023/09/21 04:42:46;;;;;;;1.30;0.95;;;15.70;99.90;;;14.64;100.00;99833.00;9918849;29;96775;-91
2023/09/21 04:47:51;;;;;;;1.88;1.00;;;15.90;99.90;;;14.80;100.00;99837.13;9905674;29;96658;-91
2023/09/21 04:52:55;;;;;;;2.25;1.00;;;16.00;99.90;;;14.95;100.00;99842.28;9908941;29;97482;-89
2023/09/21 04:57:59;;;;;;;2.33;1.20;;;16.20;99.90;;;15.09;100.00;99849.28;9895938;29;98100;-90
2023/09/21 05:03:05;;;;;;;2.38;1.08;;;16.30;99.90;;;15.20;100.00;99851.34;9889652;29;96703;-90
2023/09/21 05:08:09;;;;;;;2.53;1.60;;;16.40;99.90;;;15.34;100.00;99860.19;9884517;29;98358;-89
2023/09/21 05:13:13;;;;;;;2.13;1.10;;;16.50;99.90;;;15.47;100.00;99862.03;9879329;29;96894;-91
2023/09/21 05:18:16;;;;;;;2.35;1.15;;;16.60;99.90;;;15.53;99.51;99858.53;9906295;29;98361;-90
2023/09/21 05:23:20;;;;;;;1.88;1.00;;;16.70;99.90;;;15.60;99.01;99845.16;9913729;29;97524;-93
2023/09/21 05:28:25;;;;;;;2.50;1.17;;;16.80;99.90;;;15.63;97.97;99852.78;9915471;29;96765;-92
2023/09/21 05:33:30;;;;;;;6.53;1.52;;;16.90;99.90;;;15.63;97.95;99848.25;9913013;29;96484;-91
2023/09/21 05:38:37;;;;;;;2.53;0.90;;;16.90;99.90;;;15.69;97.96;99851.94;9899579;29;96567;-92
2023/09/21 05:43:40;;;;;;;2.15;0.77;;;16.90;99.90;;;15.68;98.52;99842.25;9899574;29;96509;-91
2023/09/21 05:48:45;;;;;;;2.35;1.10;;;17.00;99.90;;;15.57;99.85;99841.00;9913900;29;96735;-92
2023/09/21 05:53:49;;;;;;;2.33;1.30;;;16.90;99.90;;;15.48;100.00;99842.28;9901705;29;96613;-92
2023/09/21 05:58:53;;;;;;;3.15;1.75;;;16.70;99.90;;;15.42;100.00;99854.63;9882186;29;96972;-91
2023/09/21 06:03:59;;;;;;;2.72;1.30;;;16.70;99.90;;;15.36;100.00;99844.75;9905594;29;98607;-91
2023/09/21 06:09:03;;;;;;;4.32;1.75;;;16.60;99.90;;;15.32;100.00;99845.38;9870172;29;96604;-91
2023/09/21 06:14:07;;;;;;;2.47;1.23;;;16.60;99.90;;;15.32;100.00;99845.38;9901191;29;98960;-90
2023/09/21 06:19:12;;;;;;;2.70;1.60;;;16.60;99.90;;;15.36;100.00;99847.44;9908656;29;98803;-91
2023/09/21 06:24:20;;;;;;;2.25;1.27;;;16.60;99.90;;;15.43;100.00;99845.56;9899827;29;96785;-90
2023/09/21 06:29:24;;;;;;;3.70;1.50;;;16.70;99.90;;;15.57;100.00;99856.25;9873874;29;96780;-91
2023/09/21 06:34:29;;;;;;;1.83;1.30;;;16.80;99.90;;;15.67;100.00;99857.50;9893998;29;98133;-89
2023/09/21 06:39:33;;;;;;;2.05;1.40;;;16.90;99.90;;;15.78;100.00;99856.06;9880343;29;96700;-90
2023/09/21 06:44:37;;;;;;;2.95;1.52;;;17.10;99.90;;;15.90;100.00;99848.19;9908338;29;96832;-90
2023/09/21 06:49:43;;;;;;;2.53;1.60;;;17.20;99.90;;;16.04;100.00;99847.09;9879470;29;97089;-90
2023/09/21 06:54:49;;;;;;;1.92;1.40;;;17.30;99.90;;;16.15;100.00;99832.22;9902286;29;96859;-91
2023/09/21 06:59:53;;;;;;;5.13;1.60;;;17.40;99.90;;;16.29;100.00;99839.16;9882492;29;97884;-90
2023/09/21 07:04:57;;;;;;;1.70;1.20;;;17.50;99.90;;;16.43;100.00;99821.13;9892501;29;98689;-91
2023/09/21 07:10:01;;;;;;;2.85;1.50;;;17.70;99.90;;;16.54;100.00;99817.75;9891261;29;96714;-92
2023/09/21 07:15:07;;;;;;;2.50;1.30;;;17.80;99.90;;;16.64;100.00;99809.25;9901021;29;97422;-93
2023/09/21 07:20:12;;;;;;;3.08;1.70;;;17.90;99.90;;;16.80;100.00;99809.59;9897906;29;98682;-92
2023/09/21 07:25:16;;;;;;;2.15;1.20;;;18.10;99.90;;;17.01;100.00;99811.06;9914675;29;96811;-92
2023/09/21 07:30:20;;;;;;;2.65;1.50;;;18.30;99.90;;;17.11;100.00;99799.84;9916388;29;96572;-91
2023/09/21 07:35:24;;;;;;;3.90;1.33;;;18.40;99.90;;;17.24;100.00;99799.72;9891669;29;96509;-93
2023/09/21 07:40:28;;;;;;;2.17;0.95;;;18.50;99.90;;;17.45;100.00;99805.69;9919222;29;96626;-94
2023/09/21 07:45:33;;;;;;;1.85;1.00;;;18.70;99.90;;;17.68;100.00;99811.25;9883340;29;96480;-94
2023/09/21 07:50:37;;;;;;;4.22;1.30;;;19.00;99.90;;;17.91;98.34;99806.03;9904755;29;97641;-93
2023/09/21 07:55:42;;;;;;;1.88;1.00;;;19.20;99.90;;;18.13;94.33;99792.16;9877954;29;96798;-93
2023/09/21 08:00:45;;;;;;;3.15;0.95;;;19.40;99.90;;;18.39;92.41;99793.63;9891031;29;97909;-93
2023/09/21 08:05:49;;;;;;;1.63;1.05;;;19.70;99.90;;;18.60;89.42;99803.09;9898942;29;96714;-93
2023/09/21 08:10:53;;;;;;;2.28;1.00;;;19.90;99.90;;;18.78;86.44;99804.91;9910816;29;96705;-94
2023/09/21 08:15:59;;;;;;;1.60;0.98;;;20.10;99.90;;;18.88;85.62;99808.66;9906284;29;96879;-94
2023/09/21 08:21:04;;;;;;;2.05;1.05;;;20.20;99.90;;;19.00;84.84;99800.59;9904938;29;96658;-94
2023/09/21 08:26:09;;;;;;;2.47;1.23;;;20.30;99.90;;;19.06;84.63;99801.53;9919029;29;96566;-95
2023/09/21 08:31:13;;;;;;;2.28;1.15;;;20.40;99.90;;;19.10;84.93;99816.19;9916419;29;96710;-94
2023/09/21 08:36:17;;;;;;;1.80;1.08;;;20.40;99.90;;;19.05;84.99;99816.88;9889245;29;96590;-95
2023/09/21 08:41:21;;;;;;;1.90;0.90;;;20.40;99.90;;;19.02;85.68;99817.38;9901279;29;96602;-94
2023/09/21 08:46:27;;;;;;;1.40;0.85;;;20.40;99.90;;;18.99;85.96;99812.41;9902008;29;96669;-95
2023/09/21 08:51:32;;;;;;;4.15;2.08;;;20.40;99.90;;;18.98;86.84;99829.63;9890629;29;97169;-93
2023/09/21 08:56:36;;;;;;;2.42;1.20;;;20.30;99.90;;;18.99;87.31;99844.72;9880533;29;96713;-94
2023/09/21 09:01:41;;;;;;;2.35;1.20;;;20.40;99.90;;;18.97;87.93;99834.22;9888423;29;96543;-94
2023/09/21 09:06:45;;;;;;;2.30;1.00;;;20.30;99.90;;;18.97;88.30;99830.69;9917596;29;96525;-94
2023/09/21 09:11:48;;;;;;;3.45;1.52;;;20.30;99.90;;;18.88;89.42;99819.41;9903283;29;96674;-92
2023/09/21 09:16:52;;;;;;;10.20;4.68;;;20.30;99.90;;;18.68;91.82;99808.97;9912353;29;96381;-95
2023/09/21 09:21:56;;;;;;;3.35;1.92;;;20.10;99.90;;;18.54;95.12;99814.75;9887709;29;96428;-95
2023/09/21 09:27:00;;;;;;;3.45;1.65;;;19.90;99.90;;;18.42;98.17;99798.56;9902658;29;96445;-93
2023/09/21 09:32:08;;;;;;;2.50;1.40;;;19.80;99.90;;;18.35;100.00;99797.81;9866033;29;96561;-92
2023/09/21 09:37:15;;;;;;;3.97;1.90;;;19.70;99.90;;;18.41;100.00;99805.84;9863547;29;96458;-93
2023/09/21 09:42:21;;;;;;;2.83;1.80;;;19.80;99.90;;;18.45;100.00;99780.09;9883092;29;96827;-93
2023/09/21 09:47:30;;;;;;;3.20;1.92;;;19.80;99.90;;;18.50;100.00;99774.03;9913811;29;97367;-92
2023/09/21 09:52:40;;;;;;;3.97;1.77;;;19.90;99.90;;;18.59;100.00;99777.19;9859842;29;96733;-93
2023/09/21 09:57:46;;;;;;;3.47;1.80;;;19.90;99.90;;;18.71;100.00;99756.53;9876754;29;98327;-93
2023/09/21 10:02:53;;;;;;;3.83;1.40;;;20.10;99.90;;;18.85;100.00;99747.22;9892660;29;96727;-94
2023/09/21 10:08:01;;;;;;;2.67;1.70;;;20.20;99.90;;;18.93;100.00;99741.47;9913211;29;96955;-95
2023/09/21 10:13:05;;;;;;;4.35;1.67;;;20.30;99.90;;;19.02;98.62;99752.72;9883405;29;97572;-95
2023/09/21 10:18:09;;;;;;;3.97;2.10;;;20.40;99.90;;;19.16;99.45;99743.34;9898128;29;96537;-95
2023/09/21 10:23:18;;;;;;;3.90;2.10;;;20.50;99.90;;;19.41;99.72;99751.19;9886280;29;96636;-94
2023/09/21 10:28:34;;;;;;;3.22;1.67;;;20.70;99.90;;;19.65;97.28;99745.78;9902931;29;98189;-95
2023/09/21 10:34:05;;;;;;;7.13;2.15;;;21.00;99.90;;;19.89;95.21;99741.13;9910800;29;96606;-95
2023/09/21 10:39:10;;;;;;;3.15;1.83;;;21.20;99.90;;;20.17;94.07;99726.84;9903967;29;96653;-95
2023/09/21 10:44:52;;;;;;;4.43;2.28;;;21.50;99.90;;;20.26;91.32;99714.59;9927410;29;96706;-94
2023/09/21 10:50:04;;;;;;;3.30;1.63;;;21.60;99.90;;;20.40;92.67;99709.72;9907734;29;96568;-95
2023/09/21 10:55:12;;;;;;;2.13;1.40;;;21.70;99.90;;;20.52;92.15;99692.41;9915318;29;96693;-95
2023/09/21 11:00:18;;;;;;;3.58;1.42;;;21.90;99.90;;;20.65;88.09;99695.84;9909671;29;96659;-96
2023/09/21 11:05:25;;;;;;;3.10;1.42;;;22.10;99.90;;;20.78;87.24;99688.22;9854922;29;97346;-95
2023/09/21 11:10:31;;;;;;;2.90;1.67;;;22.20;99.90;;;20.92;85.78;99680.56;9906449;29;96848;-95
2023/09/21 11:15:36;;;;;;;2.30;1.50;;;22.30;99.90;;;21.13;83.31;99670.06;9908455;29;96812;-95
2023/09/21 11:20:41;;;;;;;2.60;1.30;;;22.50;99.90;;;21.29;82.73;99647.59;9916369;29;96660;-94
2023/09/21 11:25:49;;;;;;;2.35;1.13;;;22.70;99.90;;;21.55;81.92;99652.25;9898137;29;97238;-94
2023/09/21 11:30:56;;;;;;;2.72;1.40;;;22.90;99.90;;;21.95;80.29;99640.25;9896394;29;96620;-96
2023/09/21 11:36:01;;;;;;;2.75;1.38;;;23.20;99.70;;;22.25;75.55;99631.63;9912162;29;96640;-96
2023/09/21 11:41:05;;;;;;;2.00;1.30;;;23.50;98.50;;;22.50;74.57;99614.75;9884439;29;98563;-96
2023/09/21 11:46:10;;;;;;;6.28;1.58;;;23.80;97.40;;;22.94;73.80;99595.53;9974018;23;96547;-90
2023/09/21 11:51:14;;;;;;;3.28;1.63;;;24.10;97.00;;;23.33;70.84;99589.72;9917798;29;99169;-90
2023/09/21 11:56:18;;;;;;;1.95;1.30;;;24.50;96.40;;;23.38;66.21;99579.69;9933892;29;97480;-88
2023/09/21 12:01:22;;;;;;;2.92;1.70;;;24.70;94.60;;;23.66;67.91;99566.78;9946573;29;98126;-87
2023/09/21 12:06:27;;;;;;;2.30;1.27;;;24.80;94.70;;;24.09;64.37;99554.59;9959031;29;97337;-91
2023/09/21 12:11:31;;;;;;;2.30;1.40;;;25.20;93.80;;;23.90;64.07;99540.75;9943867;29;96661;-91
2023/09/21 12:16:38;;;;;;;3.33;1.70;;;25.10;93.00;;;23.65;63.87;99546.97;9940589;29;97319;-87
2023/09/21 12:21:44;;;;;;;3.05;1.58;;;24.90;92.90;;;23.56;63.78;99543.13;9938071;29;97089;-89
2023/09/21 12:26:49;;;;;;;4.38;1.40;;;24.80;92.70;;;23.55;65.01;99541.50;9968714;29;96697;-88
2023/09/21 12:31:52;;;;;;;2.50;1.40;;;24.80;92.80;;;23.67;63.87;99535.84;9960306;29;98492;-90
2023/09/21 12:37:05;;;;;;;2.92;1.30;;;24.80;92.70;;;23.81;63.71;99526.13;9949876;29;97877;-90
2023/09/21 12:42:14;;;;;;;2.45;1.40;;;25.00;92.30;;;23.91;62.16;99519.84;9969748;29;96924;-88
2023/09/21 12:47:18;;;;;;;4.68;1.50;;;25.10;91.80;;;24.03;62.48;99509.53;9941233;29;97285;-87
2023/09/21 12:52:22;;;;;;;4.05;1.55;;;25.20;91.80;;;24.13;61.94;99500.56;9956762;29;96905;-87
2023/09/21 12:57:30;;;;;;;3.28;1.50;;;25.30;91.60;;;24.16;60.56;99500.81;9953643;29;96507;-89
2023/09/21 13:02:33;;;;;;;2.58;1.42;;;25.30;91.20;;;24.12;60.46;99499.75;9942417;29;96637;-90
2023/09/21 13:07:44;;;;;;;3.65;1.70;;;25.30;90.90;;;24.18;61.01;99482.38;9913699;29;96583;-89
2023/09/21 13:12:48;;;;;;;6.15;1.83;;;25.30;90.80;;;24.25;60.81;99477.47;9956476;29;96558;-88
2023/09/21 13:17:53;;;;;;;2.85;1.58;;;25.30;90.50;;;24.37;60.23;99468.25;9952200;29;96786;-90
2023/09/21 13:22:57;;;;;;;4.35;1.70;;;25.50;90.60;;;24.35;60.61;99464.97;9933889;29;98108;-89
2023/09/21 13:28:01;;;;;;;3.10;1.70;;;25.50;90.30;;;24.36;60.43;99462.00;9942486;29;98470;-88
2023/09/21 13:33:06;;;;;;;3.17;1.27;;;25.50;90.20;;;24.34;60.25;99456.03;9941135;29;96657;-90
2023/09/21 13:38:10;;;;;;;3.53;1.60;;;25.50;90.30;;;24.37;60.17;99451.97;9922650;29;96560;-96
2023/09/21 13:43:15;;;;;;;2.17;1.48;;;25.50;89.90;;;24.50;59.34;99446.75;9977808;29;96648;-96
2023/09/21 13:48:22;;;;;;;2.22;1.48;;;25.60;89.40;;;24.51;59.37;99432.06;10005984;23;96648;-92
2023/09/21 13:53:26;;;;;;;2.38;1.33;;;25.60;89.40;;;24.55;59.93;99438.56;9979357;29;98262;-91
2023/09/21 13:58:29;;;;;;;2.85;1.30;;;25.60;89.30;;;24.51;59.44;99426.63;9965016;29;96790;-90
2023/09/21 14:03:38;;;;;;;3.65;1.50;;;25.70;89.50;;;24.48;58.90;99426.41;9972691;29;96514;-89
2023/09/21 14:08:43;;;;;;;4.15;1.75;;;25.60;88.40;;;24.50;59.54;99418.78;9996593;29;96528;-90
2023/09/21 14:13:47;;;;;;;2.88;1.67;;;25.60;88.60;;;24.64;60.60;99408.91;10026763;29;99747;-90
2023/09/21 14:18:57;;;;;;;5.32;1.63;;;25.80;89.20;;;24.80;59.89;99401.50;9984319;29;96716;-89
2023/09/21 14:24:02;;;;;;;3.08;1.60;;;25.90;89.10;;;25.07;58.50;99396.47;9980906;29;96657;-90
2023/09/21 14:29:06;;;;;;;4.65;1.92;;;26.20;88.10;;;25.33;56.20;99394.38;9966637;29;96661;-91
2023/09/21 14:34:10;;;;;;;5.88;1.50;;;26.60;86.00;;;25.55;56.55;99388.47;9975529;29;96493;-91
2023/09/21 14:39:13;;;;;;;3.78;1.33;;;26.80;86.00;;;25.70;54.80;99376.63;9968422;29;96630;-91
2023/09/21 14:44:18;;;;;;;3.50;1.30;;;26.90;84.10;;;25.84;53.70;99376.78;9934691;29;96660;-91
2023/09/21 14:49:30;;;;;;;1.75;1.25;;;27.00;83.50;;;25.87;53.41;99371.56;9962264;29;96678;-91
2023/09/21 14:54:39;;;;;;;3.72;1.35;;;27.10;82.60;;;25.91;53.26;99360.94;9984751;29;96688;-92
2023/09/21 14:59:47;;;;;;;2.95;1.40;;;27.20;82.00;;;25.94;53.66;99362.25;9974428;29;96519;-91
2023/09/21 15:04:51;;;;;;;5.75;1.30;;;27.20;82.00;;;25.94;53.45;99359.53;9979305;29;96499;-90
2023/09/21 15:09:56;;;;;;;3.45;1.67;;;27.20;81.90;;;25.89;52.48;99354.94;9985208;29;96620;-91
2023/09/21 15:15:01;;;;;;;2.28;1.17;;;27.10;80.50;;;25.92;52.58;99339.97;9965942;29;98808;-91
2023/09/21 15:20:07;;;;;;;4.20;1.33;;;27.20;80.70;;;26.13;52.35;99331.25;9981167;29;96507;-91
2023/09/21 15:25:11;;;;;;;3.83;1.58;;;27.60;80.40;;;26.39;51.09;99318.13;9956455;29;96783;-92
2023/09/21 15:30:16;;;;;;;1.60;1.10;;;28.00;79.40;;;26.54;50.51;99314.41;9987079;29;98801;-90
2023/09/21 15:35:21;;;;;;;2.45;1.10;;;28.20;78.40;;;26.54;49.85;99297.25;9984358;29;96584;-90
2023/09/21 15:40:29;;;;;;;1.83;1.08;;;28.10;78.00;;;26.51;51.07;99292.38;9978546;29;96558;-91
2023/09/21 15:45:34;;;;;;;2.05;0.95;;;28.00;78.00;;;26.28;50.94;99299.50;10018592;29;96580;-90
2023/09/21 15:50:39;;;;;;;4.25;1.20;;;27.70;77.90;;;26.04;51.69;99291.38;9986600;29;96579;-90
2023/09/21 15:55:48;;;;;;;2.73;1.90;;;27.40;78.40;;;25.87;52.94;99291.84;9963462;29;96874;-89
2023/09/21 16:00:52;;;;;;;5.55;1.35;;;27.20;79.30;;;25.58;53.91;99295.41;9998225;29;97369;-90
2023/09/21 16:05:57;;;;;;;4.20;1.40;;;26.90;79.60;;;25.35;56.00;99297.00;9993083;29;96613;-90
2023/09/21 16:11:03;;;;;;;2.63;1.50;;;26.60;80.70;;;25.03;57.67;99286.66;9965208;29;96545;-91
2023/09/21 16:16:06;;;;;;;4.63;1.60;;;26.20;82.00;;;24.69;60.03;99297.50;9963402;29;96450;-90
2023/09/21 16:21:13;;;;;;;4.40;1.58;;;25.80;83.50;;;24.32;61.17;99297.19;9950081;29;96622;-90
2023/09/21 16:26:17;;;;;;;4.38;1.85;;;25.40;84.60;;;23.94;62.40;99291.41;9983681;29;97733;-91
2023/09/21 16:31:38;;;;;;;2.37;1.60;;;25.00;85.70;;;23.55;64.38;99293.91;10024071;29;98686;-89
2023/09/21 16:36:42;;;;;;;3.53;1.58;;;24.60;87.00;;;23.23;65.76;99295.88;9986694;29;98182;-89
2023/09/21 16:41:48;;;;;;;6.03;1.90;;;24.20;88.00;;;22.90;67.44;99291.81;10001480;29;96694;-90
2023/09/21 16:46:51;;;;;;;3.97;1.90;;;23.90;89.30;;;22.60;68.72;99289.88;9991907;29;96555;-89
2023/09/21 16:51:56;;;;;;;3.45;2.13;;;23.60;90.10;;;22.35;70.11;99284.41;10015382;29;96491;-91
2023/09/21 16:57:00;;;;;;;3.38;1.48;;;23.40;90.60;;;22.10;71.50;99291.38;9990756;29;96481;-91
2023/09/21 17:02:05;;;;;;;5.88;2.10;;;23.10;91.10;;;21.88;72.65;99279.88;9992766;29;98244;-91
2023/09/21 17:07:10;;;;;;;3.10;1.85;;;22.90;91.50;;;21.66;73.71;99290.09;10004105;29;96340;-91
2023/09/21 17:12:14;;;;;;;5.85;2.20;;;22.60;91.90;;;21.47;74.23;99286.97;9985483;29;96623;-91
2023/09/21 17:17:21;;;;;;;3.72;1.90;;;22.50;92.20;;;21.31;75.13;99280.69;9986108;29;96929;-93
2023/09/21 17:22:28;;;;;;;7.00;1.98;;;22.40;92.60;;;21.18;76.55;99289.22;9963652;29;96607;-92
2023/09/21 17:27:32;;;;;;;6.80;2.35;;;22.20;92.90;;;21.03;77.05;99279.91;9968739;29;97759;-92
2023/09/21 17:32:37;;;;;;;6.32;1.85;;;22.10;93.20;;;20.96;78.64;99284.72;9982591;29;96557;-91
2023/09/21 17:37:44;;;;;;;4.47;1.70;;;22.00;93.60;;;20.85;78.51;99286.50;9982646;29;96478;-92
2023/09/21 17:42:48;;;;;;;2.92;1.65;;;21.90;93.80;;;20.83;79.06;99295.94;9997665;29;96662;-91
2023/09/21 17:47:54;;;;;;;2.45;1.60;;;21.80;93.90;;;20.76;79.39;99287.25;9998670;29;96607;-92
2023/09/21 17:52:59;;;;;;;2.13;1.52;;;21.90;94.10;;;20.80;79.43;99293.75;9998886;29;96509;-90
2023/09/21 17:58:03;;;;;;;5.05;1.55;;;21.90;94.30;;;20.80;79.45;99304.53;9995293;29;96769;-91
2023/09/21 18:03:07;;;;;;;5.13;2.03;;;21.90;94.50;;;20.85;80.45;99312.69;9970181;29;97836;-91
2023/09/21 18:08:11;;;;;;;2.97;1.67;;;21.90;94.50;;;20.86;79.68;99311.63;9994633;29;96971;-91
2023/09/21 18:13:15;;;;;;;4.63;1.45;;;22.00;94.70;;;20.94;79.39;99324.69;9959445;29;96643;-91
2023/09/21 18:18:19;;;;;;;3.72;1.38;;;22.00;94.50;;;21.09;77.60;99321.28;9966538;29;96632;-91
2023/09/21 18:23:23;;;;;;;6.18;1.40;;;22.20;94.30;;;21.19;77.02;99344.88;9972264;29;96925;-91
2023/09/21 18:28:27;;;;;;;2.58;1.40;;;22.30;94.20;;;21.24;76.18;99337.63;9970453;29;97825;-91
2023/09/21 18:33:31;;;;;;;2.45;1.30;;;22.30;94.10;;;21.25;76.41;99327.63;9998604;29;96667;-91
2023/09/21 18:38:35;;;;;;;3.03;1.45;;;22.30;94.10;;;21.24;76.76;99317.91;9980505;29;96971;-91
2023/09/21 18:43:39;;;;;;;2.53;1.77;;;22.30;94.10;;;21.21;77.24;99302.19;9995350;29;96803;-91
2023/09/21 18:48:42;;;;;;;3.05;1.90;;;22.30;94.10;;;21.17;78.35;99309.16;9967226;29;97965;-92
2023/09/21 18:53:46;;;;;;;4.45;2.50;;;22.30;94.50;;;21.09;79.39;99319.38;9963723;29;97952;-92
2023/09/21 18:58:50;;;;;;;3.78;2.03;;;22.20;94.80;;;21.01;80.91;99310.97;9991829;29;97636;-91
2023/09/21 19:03:54;;;;;;;5.03;1.83;;;22.10;95.10;;;20.90;81.95;99312.75;10000849;29;96883;-91
2023/09/21 19:08:59;;;;;;;2.88;1.92;;;22.00;95.50;;;20.83;83.19;99315.66;9989516;29;97403;-90
2023/09/21 19:14:02;;;;;;;3.97;2.45;;;21.90;95.80;;;20.75;83.44;99320.69;10002898;29;97861;-90
2023/09/21 19:19:06;;;;;;;4.32;1.98;;;21.80;96.00;;;20.65;84.18;99313.34;9971688;29;98465;-90
2023/09/21 19:24:10;;;;;;;5.65;2.70;;;21.80;96.30;;;20.58;85.28;99313.53;10002436;29;97558;-90
2023/09/21 19:29:14;;;;;;;5.07;2.60;;;21.70;96.60;;;20.50;86.01;99316.69;9986713;29;98705;-90
2023/09/21 19:34:18;;;;;;;4.07;2.28;;;21.60;96.80;;;20.40;85.94;99313.84;9993988;29;97586;-89
2023/09/21 19:39:24;;;;;;;4.28;2.10;;;21.50;96.90;;;20.32;85.43;99319.69;10001488;29;96610;-91
2023/09/21 19:44:29;;;;;;;3.20;1.88;;;21.40;97.00;;;20.20;85.14;99322.53;9981625;29;97473;-90
2023/09/21 19:49:33;;;;;;;3.85;2.20;;;21.30;97.20;;;20.12;85.13;99316.75;9979633;29;98305;-91
2023/09/21 19:54:37;;;;;;;5.65;2.20;;;21.20;97.20;;;20.02;86.12;99329.03;9988647;29;98496;-90
2023/09/21 19:59:41;;;;;;;2.85;1.90;;;21.10;97.30;;;19.95;85.80;99319.53;9991833;29;97910;-91
2023/09/21 20:04:45;;;;;;;3.92;2.03;;;21.10;97.50;;;19.92;86.01;99320.84;9977405;29;96654;-91
2023/09/21 20:09:49;;;;;;;4.90;2.58;;;21.00;97.60;;;19.92;86.02;99326.25;9979775;29;96789;-90
2023/09/21 20:14:53;;;;;;;7.07;2.65;;;21.00;97.60;;;19.94;85.83;99323.28;10001991;29;96420;-90
2023/09/21 20:19:58;;;;;;;5.57;2.70;;;21.10;97.60;;;19.95;86.43;99336.50;9991915;29;98641;-91
2023/09/21 20:25:02;;;;;;;3.00;1.77;;;21.10;97.70;;;20.08;86.04;99346.09;9976960;29;96951;-93
2023/09/21 20:30:09;;;;;;;5.15;2.30;;;21.20;97.80;;;20.25;85.25;99346.88;9991369;29;96638;-92
2023/09/21 20:35:13;;;;;;;4.93;2.08;;;21.30;97.80;;;20.41;84.13;99350.56;9983199;29;97031;-92
2023/09/21 20:40:17;;;;;;;3.40;1.45;;;21.50;97.60;;;20.60;80.91;99334.06;9992038;29;96672;-92
2023/09/21 20:45:20;;;;;;;5.82;1.38;;;21.60;97.10;;;20.71;77.45;99328.50;9982565;29;96652;-92
2023/09/21 20:50:24;;;;;;;3.70;1.20;;;21.70;96.40;;;20.81;74.93;99316.97;9986322;29;98482;-90
2023/09/21 20:55:29;;;;;;;5.25;1.08;;;21.90;95.40;;;20.91;73.85;99322.47;9994178;29;97441;-89
2023/09/21 21:00:33;;;;;;;2.60;1.10;;;22.00;95.00;;;20.96;72.80;99310.91;9991223;29;97263;-90
2023/09/21 21:05:37;;;;;;;3.65;1.35;;;22.00;94.50;;;21.03;71.84;99289.91;9977958;29;96774;-90
2023/09/21 21:10:41;;;;;;;4.38;1.02;;;22.10;94.30;;;21.05;71.45;99296.69;9982487;29;97339;-89
2023/09/21 21:15:45;;;;;;;2.75;0.75;;;22.10;94.10;;;21.02;72.18;99283.69;9969600;29;98495;-90
2023/09/21 21:20:49;;;;;;;3.83;1.17;;;22.10;94.00;;;20.97;71.24;99282.81;9986169;29;97222;-90